sensor_id;sensor_type;location;lat;lon;timestamp;temperature;humidity
17364;DHT22;8799;43.594;13.526;2022-08-16T00:00:11;26.40;80.00
17364;DHT22;8799;43.594;13.526;2022-08-16T00:02:42;26.40;79.40
17364;DHT22;8799;43.594;13.526;2022-08-16T00:05:10;26.40;78.80
17364;DHT22;8799;43.594;13.526;2022-08-16T00:07:39;26.40;78.20
17364;DHT22;8799;43.594;13.526;2022-08-16T00:10:09;26.40;78.20
17364;DHT22;8799;43.594;13.526;2022-08-16T00:12:37;26.40;77.90
17364;DHT22;8799;43.594;13.526;2022-08-16T00:15:10;26.50;77.70
17364;DHT22;8799;43.594;13.526;2022-08-16T00:17:40;26.50;77.40
17364;DHT22;8799;43.594;13.526;2022-08-16T00:20:09;26.50;77.30
17364;DHT22;8799;43.594;13.526;2022-08-16T00:22:40;26.50;77.20
17364;DHT22;8799;43.594;13.526;2022-08-16T00:25:11;26.60;77.10
17364;DHT22;8799;43.594;13.526;2022-08-16T00:27:39;26.60;76.90
17364;DHT22;8799;43.594;13.526;2022-08-16T00:30:09;26.60;76.70
17364;DHT22;8799;43.594;13.526;2022-08-16T00:32:41;26.60;76.50
17364;DHT22;8799;43.594;13.526;2022-08-16T00:35:12;26.60;76.50
17364;DHT22;8799;43.594;13.526;2022-08-16T00:37:40;26.60;76.40
17364;DHT22;8799;43.594;13.526;2022-08-16T00:40:10;26.60;76.50
17364;DHT22;8799;43.594;13.526;2022-08-16T00:42:38;26.60;76.40
17364;DHT22;8799;43.594;13.526;2022-08-16T00:45:15;26.60;76.50
17364;DHT22;8799;43.594;13.526;2022-08-16T00:47:46;26.60;76.30
17364;DHT22;8799;43.594;13.526;2022-08-16T00:50:15;26.60;76.20
17364;DHT22;8799;43.594;13.526;2022-08-16T00:52:43;26.60;76.10
17364;DHT22;8799;43.594;13.526;2022-08-16T00:55:11;26.60;75.90
17364;DHT22;8799;43.594;13.526;2022-08-16T00:57:39;26.50;75.90
17364;DHT22;8799;43.594;13.526;2022-08-16T01:00:08;26.60;76.00
17364;DHT22;8799;43.594;13.526;2022-08-16T01:02:37;26.60;76.20
17364;DHT22;8799;43.594;13.526;2022-08-16T01:05:08;26.50;76.20
17364;DHT22;8799;43.594;13.526;2022-08-16T01:07:36;26.50;76.30
17364;DHT22;8799;43.594;13.526;2022-08-16T01:10:04;26.50;76.40
17364;DHT22;8799;43.594;13.526;2022-08-16T01:12:33;26.50;76.60
17364;DHT22;8799;43.594;13.526;2022-08-16T01:15:01;26.50;76.70
17364;DHT22;8799;43.594;13.526;2022-08-16T01:17:29;26.50;76.70
17364;DHT22;8799;43.594;13.526;2022-08-16T01:20:00;26.50;76.80
17364;DHT22;8799;43.594;13.526;2022-08-16T01:22:35;26.60;76.60
17364;DHT22;8799;43.594;13.526;2022-08-16T01:25:09;26.60;76.70
17364;DHT22;8799;43.594;13.526;2022-08-16T01:27:45;26.50;76.70
17364;DHT22;8799;43.594;13.526;2022-08-16T01:30:18;26.40;77.20
17364;DHT22;8799;43.594;13.526;2022-08-16T01:32:47;26.30;77.90
17364;DHT22;8799;43.594;13.526;2022-08-16T01:35:18;26.20;78.60
17364;DHT22;8799;43.594;13.526;2022-08-16T01:37:50;26.10;79.00
17364;DHT22;8799;43.594;13.526;2022-08-16T01:40:22;26.00;79.50
17364;DHT22;8799;43.594;13.526;2022-08-16T01:42:50;26.00;80.00
17364;DHT22;8799;43.594;13.526;2022-08-16T01:45:19;26.00;80.20
17364;DHT22;8799;43.594;13.526;2022-08-16T01:47:49;26.00;80.40
17364;DHT22;8799;43.594;13.526;2022-08-16T01:50:19;25.90;80.30
17364;DHT22;8799;43.594;13.526;2022-08-16T01:52:48;26.00;80.70
17364;DHT22;8799;43.594;13.526;2022-08-16T01:55:19;26.00;80.60
17364;DHT22;8799;43.594;13.526;2022-08-16T01:57:47;26.10;80.30
17364;DHT22;8799;43.594;13.526;2022-08-16T02:00:16;26.10;80.00
17364;DHT22;8799;43.594;13.526;2022-08-16T02:02:44;26.20;79.50
17364;DHT22;8799;43.594;13.526;2022-08-16T02:05:12;26.20;79.40
17364;DHT22;8799;43.594;13.526;2022-08-16T02:07:40;26.20;79.50
17364;DHT22;8799;43.594;13.526;2022-08-16T02:10:09;26.10;80.00
17364;DHT22;8799;43.594;13.526;2022-08-16T02:12:39;26.00;80.50
17364;DHT22;8799;43.594;13.526;2022-08-16T02:15:07;25.90;80.30
17364;DHT22;8799;43.594;13.526;2022-08-16T02:17:35;25.90;80.50
17364;DHT22;8799;43.594;13.526;2022-08-16T02:20:03;25.80;80.60
17364;DHT22;8799;43.594;13.526;2022-08-16T02:22:31;25.70;80.80
17364;DHT22;8799;43.594;13.526;2022-08-16T02:24:58;25.80;80.80
17364;DHT22;8799;43.594;13.526;2022-08-16T02:27:27;25.80;80.70
17364;DHT22;8799;43.594;13.526;2022-08-16T02:29:56;25.90;80.40
17364;DHT22;8799;43.594;13.526;2022-08-16T02:32:24;25.90;80.00
17364;DHT22;8799;43.594;13.526;2022-08-16T02:34:52;26.00;80.00
17364;DHT22;8799;43.594;13.526;2022-08-16T02:37:20;26.10;79.50
17364;DHT22;8799;43.594;13.526;2022-08-16T02:39:48;26.20;79.10
17364;DHT22;8799;43.594;13.526;2022-08-16T02:42:15;26.30;78.70
17364;DHT22;8799;43.594;13.526;2022-08-16T02:44:44;26.40;78.20
17364;DHT22;8799;43.594;13.526;2022-08-16T02:47:13;26.40;77.80
17364;DHT22;8799;43.594;13.526;2022-08-16T02:49:41;26.40;77.50
17364;DHT22;8799;43.594;13.526;2022-08-16T02:52:09;26.50;77.60
17364;DHT22;8799;43.594;13.526;2022-08-16T02:54:37;26.50;77.50
17364;DHT22;8799;43.594;13.526;2022-08-16T02:57:04;26.50;77.70
17364;DHT22;8799;43.594;13.526;2022-08-16T02:59:32;26.50;77.90
17364;DHT22;8799;43.594;13.526;2022-08-16T03:01:59;26.50;78.10
17364;DHT22;8799;43.594;13.526;2022-08-16T03:04:29;26.40;78.60
17364;DHT22;8799;43.594;13.526;2022-08-16T03:06:58;26.40;78.80
17364;DHT22;8799;43.594;13.526;2022-08-16T03:09:35;26.40;78.70
17364;DHT22;8799;43.594;13.526;2022-08-16T03:12:05;26.50;78.60
17364;DHT22;8799;43.594;13.526;2022-08-16T03:14:33;26.50;78.40
17364;DHT22;8799;43.594;13.526;2022-08-16T03:17:01;26.50;78.10
17364;DHT22;8799;43.594;13.526;2022-08-16T03:19:32;26.50;78.10
17364;DHT22;8799;43.594;13.526;2022-08-16T03:22:00;26.50;78.00
17364;DHT22;8799;43.594;13.526;2022-08-16T03:24:28;26.50;78.10
17364;DHT22;8799;43.594;13.526;2022-08-16T03:26:57;26.50;78.10
17364;DHT22;8799;43.594;13.526;2022-08-16T03:29:25;26.50;78.00
17364;DHT22;8799;43.594;13.526;2022-08-16T03:31:53;26.50;77.70
17364;DHT22;8799;43.594;13.526;2022-08-16T03:34:21;26.50;77.60
17364;DHT22;8799;43.594;13.526;2022-08-16T03:36:51;26.60;77.40
17364;DHT22;8799;43.594;13.526;2022-08-16T03:39:19;26.60;77.20
17364;DHT22;8799;43.594;13.526;2022-08-16T03:41:47;26.60;76.70
17364;DHT22;8799;43.594;13.526;2022-08-16T03:44:15;26.60;76.70
17364;DHT22;8799;43.594;13.526;2022-08-16T03:46:43;26.60;76.70
17364;DHT22;8799;43.594;13.526;2022-08-16T03:49:12;26.60;77.00
17364;DHT22;8799;43.594;13.526;2022-08-16T03:51:41;26.60;77.80
17364;DHT22;8799;43.594;13.526;2022-08-16T03:54:11;26.60;78.70
17364;DHT22;8799;43.594;13.526;2022-08-16T03:56:39;26.60;79.30
17364;DHT22;8799;43.594;13.526;2022-08-16T03:59:07;26.60;80.70
17364;DHT22;8799;43.594;13.526;2022-08-16T04:01:34;26.60;81.90
17364;DHT22;8799;43.594;13.526;2022-08-16T04:04:03;26.60;82.60
17364;DHT22;8799;43.594;13.526;2022-08-16T04:06:31;26.60;83.70
17364;DHT22;8799;43.594;13.526;2022-08-16T04:08:59;26.60;84.70
17364;DHT22;8799;43.594;13.526;2022-08-16T04:11:28;26.60;84.70
17364;DHT22;8799;43.594;13.526;2022-08-16T04:13:57;26.60;85.50
17364;DHT22;8799;43.594;13.526;2022-08-16T04:16:24;26.60;86.00
17364;DHT22;8799;43.594;13.526;2022-08-16T04:18:52;26.60;87.30
17364;DHT22;8799;43.594;13.526;2022-08-16T04:21:20;26.60;88.60
17364;DHT22;8799;43.594;13.526;2022-08-16T04:23:49;26.60;88.50
17364;DHT22;8799;43.594;13.526;2022-08-16T04:26:17;26.60;89.60
17364;DHT22;8799;43.594;13.526;2022-08-16T04:28:47;26.60;88.70
17364;DHT22;8799;43.594;13.526;2022-08-16T04:31:15;26.70;87.70
17364;DHT22;8799;43.594;13.526;2022-08-16T04:33:44;26.70;87.20
17364;DHT22;8799;43.594;13.526;2022-08-16T04:36:11;26.70;86.90
17364;DHT22;8799;43.594;13.526;2022-08-16T04:38:38;26.70;86.90
17364;DHT22;8799;43.594;13.526;2022-08-16T04:41:06;26.70;86.90
17364;DHT22;8799;43.594;13.526;2022-08-16T04:43:34;26.80;86.40
17364;DHT22;8799;43.594;13.526;2022-08-16T04:46:05;26.80;86.40
17364;DHT22;8799;43.594;13.526;2022-08-16T04:48:32;26.80;86.40
17364;DHT22;8799;43.594;13.526;2022-08-16T04:51:00;26.80;86.20
17364;DHT22;8799;43.594;13.526;2022-08-16T04:53:28;26.80;86.20
17364;DHT22;8799;43.594;13.526;2022-08-16T04:55:57;26.80;86.00
17364;DHT22;8799;43.594;13.526;2022-08-16T04:58:25;26.80;86.00
17364;DHT22;8799;43.594;13.526;2022-08-16T05:00:53;26.80;86.00
17364;DHT22;8799;43.594;13.526;2022-08-16T05:03:22;26.80;85.90
17364;DHT22;8799;43.594;13.526;2022-08-16T05:05:50;26.80;85.90
17364;DHT22;8799;43.594;13.526;2022-08-16T05:08:18;26.80;85.80
17364;DHT22;8799;43.594;13.526;2022-08-16T05:10:46;26.80;85.70
17364;DHT22;8799;43.594;13.526;2022-08-16T05:13:14;26.80;85.70
17364;DHT22;8799;43.594;13.526;2022-08-16T05:15:43;26.80;85.80
17364;DHT22;8799;43.594;13.526;2022-08-16T05:18:12;26.70;86.00
17364;DHT22;8799;43.594;13.526;2022-08-16T05:20:41;26.70;86.20
17364;DHT22;8799;43.594;13.526;2022-08-16T05:23:09;26.70;85.90
17364;DHT22;8799;43.594;13.526;2022-08-16T05:25:38;26.60;85.40
17364;DHT22;8799;43.594;13.526;2022-08-16T05:28:06;26.60;84.90
17364;DHT22;8799;43.594;13.526;2022-08-16T05:30:36;26.60;84.80
17364;DHT22;8799;43.594;13.526;2022-08-16T05:33:05;26.60;84.40
17364;DHT22;8799;43.594;13.526;2022-08-16T05:35:34;26.60;84.20
17364;DHT22;8799;43.594;13.526;2022-08-16T05:38:03;26.60;84.00
17364;DHT22;8799;43.594;13.526;2022-08-16T05:40:31;26.60;84.00
17364;DHT22;8799;43.594;13.526;2022-08-16T05:42:59;26.60;84.00
17364;DHT22;8799;43.594;13.526;2022-08-16T05:45:27;26.60;84.00
17364;DHT22;8799;43.594;13.526;2022-08-16T05:47:55;26.60;84.00
17364;DHT22;8799;43.594;13.526;2022-08-16T05:50:24;26.60;84.00
17364;DHT22;8799;43.594;13.526;2022-08-16T05:52:51;26.60;84.20
17364;DHT22;8799;43.594;13.526;2022-08-16T05:55:22;26.60;84.30
17364;DHT22;8799;43.594;13.526;2022-08-16T05:57:51;26.60;84.20
17364;DHT22;8799;43.594;13.526;2022-08-16T06:00:19;26.60;84.30
17364;DHT22;8799;43.594;13.526;2022-08-16T06:02:47;26.60;84.30
17364;DHT22;8799;43.594;13.526;2022-08-16T06:05:17;26.60;84.30
17364;DHT22;8799;43.594;13.526;2022-08-16T06:07:45;26.60;84.30
17364;DHT22;8799;43.594;13.526;2022-08-16T06:10:13;26.70;84.40
17364;DHT22;8799;43.594;13.526;2022-08-16T06:12:42;26.70;84.20
17364;DHT22;8799;43.594;13.526;2022-08-16T06:15:13;26.70;84.00
17364;DHT22;8799;43.594;13.526;2022-08-16T06:17:42;26.70;83.70
17364;DHT22;8799;43.594;13.526;2022-08-16T06:20:12;26.70;83.50
17364;DHT22;8799;43.594;13.526;2022-08-16T06:22:40;26.70;83.30
17364;DHT22;8799;43.594;13.526;2022-08-16T06:25:10;26.70;83.20
17364;DHT22;8799;43.594;13.526;2022-08-16T06:27:38;26.70;83.20
17364;DHT22;8799;43.594;13.526;2022-08-16T06:30:10;26.70;83.20
17364;DHT22;8799;43.594;13.526;2022-08-16T06:32:38;26.70;83.60
17364;DHT22;8799;43.594;13.526;2022-08-16T06:35:07;26.70;84.00
17364;DHT22;8799;43.594;13.526;2022-08-16T06:37:36;26.70;84.20
17364;DHT22;8799;43.594;13.526;2022-08-16T06:40:06;26.70;85.20
17364;DHT22;8799;43.594;13.526;2022-08-16T06:42:33;26.80;85.70
17364;DHT22;8799;43.594;13.526;2022-08-16T06:45:02;26.80;86.30
17364;DHT22;8799;43.594;13.526;2022-08-16T06:47:32;26.80;86.70
17364;DHT22;8799;43.594;13.526;2022-08-16T06:50:00;26.80;88.10
17364;DHT22;8799;43.594;13.526;2022-08-16T06:52:27;26.80;88.70
17364;DHT22;8799;43.594;13.526;2022-08-16T06:55:02;26.80;89.60
17364;DHT22;8799;43.594;13.526;2022-08-16T06:57:29;26.80;90.20
17364;DHT22;8799;43.594;13.526;2022-08-16T06:59:57;26.80;90.30
17364;DHT22;8799;43.594;13.526;2022-08-16T07:02:25;26.80;90.50
17364;DHT22;8799;43.594;13.526;2022-08-16T07:04:54;26.80;90.50
17364;DHT22;8799;43.594;13.526;2022-08-16T07:07:22;26.80;90.40
17364;DHT22;8799;43.594;13.526;2022-08-16T07:09:49;26.80;90.30
17364;DHT22;8799;43.594;13.526;2022-08-16T07:12:17;26.90;90.30
17364;DHT22;8799;43.594;13.526;2022-08-16T07:14:45;26.90;90.20
17364;DHT22;8799;43.594;13.526;2022-08-16T07:17:14;26.90;90.20
17364;DHT22;8799;43.594;13.526;2022-08-16T07:19:43;26.90;90.00
17364;DHT22;8799;43.594;13.526;2022-08-16T07:22:12;26.90;90.50
17364;DHT22;8799;43.594;13.526;2022-08-16T07:24:40;26.90;90.60
17364;DHT22;8799;43.594;13.526;2022-08-16T07:27:09;27.00;91.80
17364;DHT22;8799;43.594;13.526;2022-08-16T07:29:38;27.00;91.30
17364;DHT22;8799;43.594;13.526;2022-08-16T07:32:06;27.00;91.30
17364;DHT22;8799;43.594;13.526;2022-08-16T07:34:34;27.10;92.10
17364;DHT22;8799;43.594;13.526;2022-08-16T07:37:04;27.10;90.80
17364;DHT22;8799;43.594;13.526;2022-08-16T07:39:34;27.10;88.60
17364;DHT22;8799;43.594;13.526;2022-08-16T07:42:03;27.10;88.50
17364;DHT22;8799;43.594;13.526;2022-08-16T07:44:30;27.10;88.60
17364;DHT22;8799;43.594;13.526;2022-08-16T07:46:58;27.10;88.30
17364;DHT22;8799;43.594;13.526;2022-08-16T07:49:26;27.10;89.00
17364;DHT22;8799;43.594;13.526;2022-08-16T07:51:54;27.10;85.30
17364;DHT22;8799;43.594;13.526;2022-08-16T07:54:24;27.10;81.00
17364;DHT22;8799;43.594;13.526;2022-08-16T07:56:54;27.10;80.10
17364;DHT22;8799;43.594;13.526;2022-08-16T07:59:22;27.20;80.40
17364;DHT22;8799;43.594;13.526;2022-08-16T08:01:50;27.20;80.60
17364;DHT22;8799;43.594;13.526;2022-08-16T08:04:20;27.30;81.30
17364;DHT22;8799;43.594;13.526;2022-08-16T08:06:48;27.30;83.80
17364;DHT22;8799;43.594;13.526;2022-08-16T08:09:16;27.30;85.30
17364;DHT22;8799;43.594;13.526;2022-08-16T08:11:44;27.30;87.80
17364;DHT22;8799;43.594;13.526;2022-08-16T08:14:13;27.30;90.00
17364;DHT22;8799;43.594;13.526;2022-08-16T08:16:42;27.30;90.90
17364;DHT22;8799;43.594;13.526;2022-08-16T08:19:10;27.30;91.10
17364;DHT22;8799;43.594;13.526;2022-08-16T08:21:39;27.30;90.00
17364;DHT22;8799;43.594;13.526;2022-08-16T08:24:09;27.30;89.80
17364;DHT22;8799;43.594;13.526;2022-08-16T08:26:37;27.30;90.70
17364;DHT22;8799;43.594;13.526;2022-08-16T08:29:06;27.40;92.10
17364;DHT22;8799;43.594;13.526;2022-08-16T08:31:35;27.40;92.30
17364;DHT22;8799;43.594;13.526;2022-08-16T08:34:05;27.40;92.90
17364;DHT22;8799;43.594;13.526;2022-08-16T08:36:49;27.40;93.90
17364;DHT22;8799;43.594;13.526;2022-08-16T08:39:17;27.40;93.60
17364;DHT22;8799;43.594;13.526;2022-08-16T08:41:46;27.40;91.40
17364;DHT22;8799;43.594;13.526;2022-08-16T08:44:14;27.40;91.40
17364;DHT22;8799;43.594;13.526;2022-08-16T08:46:52;27.40;93.20
17364;DHT22;8799;43.594;13.526;2022-08-16T08:49:22;27.40;94.30
17364;DHT22;8799;43.594;13.526;2022-08-16T08:51:51;27.40;94.80
17364;DHT22;8799;43.594;13.526;2022-08-16T08:54:19;27.40;93.00
17364;DHT22;8799;43.594;13.526;2022-08-16T08:56:46;27.50;94.60
17364;DHT22;8799;43.594;13.526;2022-08-16T08:59:15;27.50;95.10
17364;DHT22;8799;43.594;13.526;2022-08-16T09:01:42;27.50;95.90
17364;DHT22;8799;43.594;13.526;2022-08-16T09:04:12;27.70;95.70
17364;DHT22;8799;43.594;13.526;2022-08-16T09:06:41;27.50;95.30
17364;DHT22;8799;43.594;13.526;2022-08-16T09:09:09;27.50;95.30
17364;DHT22;8799;43.594;13.526;2022-08-16T09:11:37;27.50;95.00
17364;DHT22;8799;43.594;13.526;2022-08-16T09:14:07;27.60;95.60
17364;DHT22;8799;43.594;13.526;2022-08-16T09:16:35;27.50;95.70
17364;DHT22;8799;43.594;13.526;2022-08-16T09:19:03;26.00;95.50
17364;DHT22;8799;43.594;13.526;2022-08-16T09:21:33;27.60;95.80
17364;DHT22;8799;43.594;13.526;2022-08-16T09:24:02;27.60;96.30
17364;DHT22;8799;43.594;13.526;2022-08-16T09:26:32;27.60;96.70
17364;DHT22;8799;43.594;13.526;2022-08-16T09:28:59;27.60;97.50
17364;DHT22;8799;43.594;13.526;2022-08-16T09:31:29;27.70;97.80
17364;DHT22;8799;43.594;13.526;2022-08-16T09:34:01;27.70;97.20
17364;DHT22;8799;43.594;13.526;2022-08-16T09:36:29;27.70;97.20
17364;DHT22;8799;43.594;13.526;2022-08-16T09:38:59;27.70;97.20
17364;DHT22;8799;43.594;13.526;2022-08-16T09:41:28;27.70;98.00
17364;DHT22;8799;43.594;13.526;2022-08-16T09:43:57;28.40;99.30
17364;DHT22;8799;43.594;13.526;2022-08-16T09:46:25;27.70;98.90
17364;DHT22;8799;43.594;13.526;2022-08-16T09:48:53;27.70;98.40
17364;DHT22;8799;43.594;13.526;2022-08-16T09:51:20;27.80;97.90
17364;DHT22;8799;43.594;13.526;2022-08-16T09:53:48;27.80;97.60
17364;DHT22;8799;43.594;13.526;2022-08-16T09:56:24;27.80;97.20
17364;DHT22;8799;43.594;13.526;2022-08-16T09:58:52;27.70;97.00
17364;DHT22;8799;43.594;13.526;2022-08-16T10:01:23;27.70;97.00
17364;DHT22;8799;43.594;13.526;2022-08-16T10:03:51;27.60;97.00
17364;DHT22;8799;43.594;13.526;2022-08-16T10:06:23;27.60;97.70
17364;DHT22;8799;43.594;13.526;2022-08-16T10:08:51;27.60;97.50
17364;DHT22;8799;43.594;13.526;2022-08-16T10:11:20;27.60;97.20
17364;DHT22;8799;43.594;13.526;2022-08-16T10:14:10;27.50;96.40
17364;DHT22;8799;43.594;13.526;2022-08-16T10:16:38;27.30;98.00
17364;DHT22;8799;43.594;13.526;2022-08-16T10:19:06;27.60;97.80
17364;DHT22;8799;43.594;13.526;2022-08-16T10:21:34;27.60;99.10
17364;DHT22;8799;43.594;13.526;2022-08-16T10:24:03;27.60;99.80
17364;DHT22;8799;43.594;13.526;2022-08-16T10:26:33;27.60;98.80
17364;DHT22;8799;43.594;13.526;2022-08-16T10:29:03;27.60;98.20
17364;DHT22;8799;43.594;13.526;2022-08-16T10:31:31;27.60;99.50
17364;DHT22;8799;43.594;13.526;2022-08-16T10:34:00;27.60;99.30
17364;DHT22;8799;43.594;13.526;2022-08-16T10:36:28;27.50;99.90
17364;DHT22;8799;43.594;13.526;2022-08-16T10:38:56;27.70;99.90
17364;DHT22;8799;43.594;13.526;2022-08-16T10:41:24;27.70;99.90
17364;DHT22;8799;43.594;13.526;2022-08-16T10:43:54;27.70;99.90
17364;DHT22;8799;43.594;13.526;2022-08-16T10:46:21;27.70;99.90
17364;DHT22;8799;43.594;13.526;2022-08-16T10:48:49;27.70;99.20
17364;DHT22;8799;43.594;13.526;2022-08-16T10:51:18;27.70;99.60
17364;DHT22;8799;43.594;13.526;2022-08-16T10:53:46;27.70;99.90
17364;DHT22;8799;43.594;13.526;2022-08-16T10:56:14;27.60;99.90
17364;DHT22;8799;43.594;13.526;2022-08-16T10:58:44;27.60;99.90
17364;DHT22;8799;43.594;13.526;2022-08-16T11:01:14;27.70;99.90
17364;DHT22;8799;43.594;13.526;2022-08-16T11:03:42;27.60;99.90
17364;DHT22;8799;43.594;13.526;2022-08-16T11:06:10;27.60;99.90
17364;DHT22;8799;43.594;13.526;2022-08-16T11:08:37;27.70;99.90
17364;DHT22;8799;43.594;13.526;2022-08-16T11:11:06;27.70;99.90
17364;DHT22;8799;43.594;13.526;2022-08-16T11:13:33;27.70;99.90
17364;DHT22;8799;43.594;13.526;2022-08-16T11:16:16;27.70;99.90
17364;DHT22;8799;43.594;13.526;2022-08-16T11:18:45;27.70;99.90
17364;DHT22;8799;43.594;13.526;2022-08-16T11:21:13;27.70;99.90
17364;DHT22;8799;43.594;13.526;2022-08-16T11:23:40;27.70;99.90
17364;DHT22;8799;43.594;13.526;2022-08-16T11:26:09;27.70;99.90
17364;DHT22;8799;43.594;13.526;2022-08-16T11:28:37;27.70;99.90
17364;DHT22;8799;43.594;13.526;2022-08-16T11:31:08;27.70;99.90
17364;DHT22;8799;43.594;13.526;2022-08-16T11:33:38;27.80;99.90
17364;DHT22;8799;43.594;13.526;2022-08-16T11:36:06;27.70;99.90
17364;DHT22;8799;43.594;13.526;2022-08-16T11:38:34;27.80;99.90
17364;DHT22;8799;43.594;13.526;2022-08-16T11:41:07;27.80;99.90
17364;DHT22;8799;43.594;13.526;2022-08-16T11:43:38;26.70;99.90
17364;DHT22;8799;43.594;13.526;2022-08-16T11:46:08;27.80;99.90
17364;DHT22;8799;43.594;13.526;2022-08-16T11:48:39;27.80;99.90
17364;DHT22;8799;43.594;13.526;2022-08-16T11:51:07;27.80;99.90
17364;DHT22;8799;43.594;13.526;2022-08-16T11:53:35;27.80;99.90
17364;DHT22;8799;43.594;13.526;2022-08-16T11:56:04;27.80;99.90
17364;DHT22;8799;43.594;13.526;2022-08-16T11:58:35;27.80;99.90
17364;DHT22;8799;43.594;13.526;2022-08-16T12:01:05;27.80;99.90
17364;DHT22;8799;43.594;13.526;2022-08-16T12:03:33;27.80;99.90
17364;DHT22;8799;43.594;13.526;2022-08-16T12:06:07;27.80;99.90
17364;DHT22;8799;43.594;13.526;2022-08-16T12:08:35;27.90;99.90
17364;DHT22;8799;43.594;13.526;2022-08-16T12:11:04;27.80;99.90
17364;DHT22;8799;43.594;13.526;2022-08-16T12:13:32;27.90;99.90
17364;DHT22;8799;43.594;13.526;2022-08-16T12:16:00;27.90;99.90
17364;DHT22;8799;43.594;13.526;2022-08-16T12:18:29;27.80;99.90
17364;DHT22;8799;43.594;13.526;2022-08-16T12:20:57;27.80;99.90
17364;DHT22;8799;43.594;13.526;2022-08-16T12:23:27;27.80;99.90
17364;DHT22;8799;43.594;13.526;2022-08-16T12:25:55;27.80;99.90
17364;DHT22;8799;43.594;13.526;2022-08-16T12:28:23;27.80;99.90
17364;DHT22;8799;43.594;13.526;2022-08-16T12:30:51;27.70;99.90
17364;DHT22;8799;43.594;13.526;2022-08-16T12:33:19;27.80;99.90
17364;DHT22;8799;43.594;13.526;2022-08-16T12:35:47;27.80;99.50
17364;DHT22;8799;43.594;13.526;2022-08-16T12:38:16;27.80;99.00
17364;DHT22;8799;43.594;13.526;2022-08-16T12:40:48;27.90;98.90
17364;DHT22;8799;43.594;13.526;2022-08-16T12:43:17;27.90;98.60
17364;DHT22;8799;43.594;13.526;2022-08-16T12:45:49;27.80;98.40
17364;DHT22;8799;43.594;13.526;2022-08-16T12:48:20;27.80;98.70
17364;DHT22;8799;43.594;13.526;2022-08-16T12:51:07;27.90;99.30
17364;DHT22;8799;43.594;13.526;2022-08-16T12:53:36;27.80;99.40
17364;DHT22;8799;43.594;13.526;2022-08-16T12:56:06;27.80;99.20
17364;DHT22;8799;43.594;13.526;2022-08-16T12:58:37;27.90;99.10
17364;DHT22;8799;43.594;13.526;2022-08-16T13:01:06;27.80;98.60
17364;DHT22;8799;43.594;13.526;2022-08-16T13:03:33;27.90;98.60
17364;DHT22;8799;43.594;13.526;2022-08-16T13:06:04;27.90;99.20
17364;DHT22;8799;43.594;13.526;2022-08-16T13:08:32;27.90;99.50
17364;DHT22;8799;43.594;13.526;2022-08-16T13:11:07;27.90;98.70
17364;DHT22;8799;43.594;13.526;2022-08-16T13:13:35;27.90;98.50
17364;DHT22;8799;43.594;13.526;2022-08-16T13:16:04;27.90;98.50
17364;DHT22;8799;43.594;13.526;2022-08-16T13:18:36;27.90;99.30
17364;DHT22;8799;43.594;13.526;2022-08-16T13:21:05;27.90;99.50
17364;DHT22;8799;43.594;13.526;2022-08-16T13:23:34;28.00;99.90
17364;DHT22;8799;43.594;13.526;2022-08-16T13:26:03;28.00;99.90
17364;DHT22;8799;43.594;13.526;2022-08-16T13:28:33;28.00;99.00
17364;DHT22;8799;43.594;13.526;2022-08-16T13:31:01;28.00;97.80
17364;DHT22;8799;43.594;13.526;2022-08-16T13:33:33;27.90;97.30
17364;DHT22;8799;43.594;13.526;2022-08-16T13:36:04;28.00;98.10
17364;DHT22;8799;43.594;13.526;2022-08-16T13:38:33;28.00;98.60
17364;DHT22;8799;43.594;13.526;2022-08-16T13:41:02;27.90;99.30
17364;DHT22;8799;43.594;13.526;2022-08-16T13:43:32;28.00;99.90
17364;DHT22;8799;43.594;13.526;2022-08-16T13:46:00;28.00;99.90
17364;DHT22;8799;43.594;13.526;2022-08-16T13:48:29;28.00;99.90
17364;DHT22;8799;43.594;13.526;2022-08-16T13:50:57;28.10;99.90
17364;DHT22;8799;43.594;13.526;2022-08-16T13:53:25;28.00;99.90
17364;DHT22;8799;43.594;13.526;2022-08-16T13:55:54;28.00;99.90
17364;DHT22;8799;43.594;13.526;2022-08-16T13:58:22;28.00;99.30
17364;DHT22;8799;43.594;13.526;2022-08-16T14:00:51;28.00;99.10
17364;DHT22;8799;43.594;13.526;2022-08-16T14:03:23;28.00;99.20
17364;DHT22;8799;43.594;13.526;2022-08-16T14:05:52;28.00;99.70
17364;DHT22;8799;43.594;13.526;2022-08-16T14:08:20;28.00;99.90
17364;DHT22;8799;43.594;13.526;2022-08-16T14:10:48;28.00;99.90
17364;DHT22;8799;43.594;13.526;2022-08-16T14:13:16;28.00;99.90
17364;DHT22;8799;43.594;13.526;2022-08-16T14:15:44;28.00;99.70
17364;DHT22;8799;43.594;13.526;2022-08-16T14:18:13;28.00;98.80
17364;DHT22;8799;43.594;13.526;2022-08-16T14:20:40;28.00;97.90
17364;DHT22;8799;43.594;13.526;2022-08-16T14:23:09;28.00;96.00
17364;DHT22;8799;43.594;13.526;2022-08-16T14:25:38;28.00;93.90
17364;DHT22;8799;43.594;13.526;2022-08-16T14:28:06;28.00;91.30
17364;DHT22;8799;43.594;13.526;2022-08-16T14:30:34;28.00;90.40
17364;DHT22;8799;43.594;13.526;2022-08-16T14:33:02;28.00;89.80
17364;DHT22;8799;43.594;13.526;2022-08-16T14:35:32;28.00;91.00
17364;DHT22;8799;43.594;13.526;2022-08-16T14:38:00;28.00;92.90
17364;DHT22;8799;43.594;13.526;2022-08-16T14:40:28;28.00;93.90
17364;DHT22;8799;43.594;13.526;2022-08-16T14:42:55;28.00;95.20
17364;DHT22;8799;43.594;13.526;2022-08-16T14:45:26;28.00;96.00
17364;DHT22;8799;43.594;13.526;2022-08-16T14:47:55;28.00;97.60
17364;DHT22;8799;43.594;13.526;2022-08-16T14:50:24;28.00;98.40
17364;DHT22;8799;43.594;13.526;2022-08-16T14:52:56;28.00;99.90
17364;DHT22;8799;43.594;13.526;2022-08-16T14:55:26;28.00;99.90
17364;DHT22;8799;43.594;13.526;2022-08-16T14:57:54;28.00;99.90
17364;DHT22;8799;43.594;13.526;2022-08-16T15:00:24;28.00;99.90
17364;DHT22;8799;43.594;13.526;2022-08-16T15:02:53;28.10;99.90
17364;DHT22;8799;43.594;13.526;2022-08-16T15:05:23;28.00;99.90
17364;DHT22;8799;43.594;13.526;2022-08-16T15:07:53;28.00;99.90
17364;DHT22;8799;43.594;13.526;2022-08-16T15:10:22;28.00;99.90
17364;DHT22;8799;43.594;13.526;2022-08-16T15:12:51;28.00;99.90
17364;DHT22;8799;43.594;13.526;2022-08-16T15:15:21;28.00;99.90
17364;DHT22;8799;43.594;13.526;2022-08-16T15:17:49;28.00;99.90
17364;DHT22;8799;43.594;13.526;2022-08-16T15:20:18;28.00;99.90
17364;DHT22;8799;43.594;13.526;2022-08-16T15:22:48;28.00;99.90
17364;DHT22;8799;43.594;13.526;2022-08-16T15:25:21;28.00;99.90
17364;DHT22;8799;43.594;13.526;2022-08-16T15:27:49;28.00;99.90
17364;DHT22;8799;43.594;13.526;2022-08-16T15:30:19;28.00;99.90
17364;DHT22;8799;43.594;13.526;2022-08-16T15:32:49;28.00;99.90
17364;DHT22;8799;43.594;13.526;2022-08-16T15:35:17;28.00;99.90
17364;DHT22;8799;43.594;13.526;2022-08-16T15:37:45;28.00;99.90
17364;DHT22;8799;43.594;13.526;2022-08-16T15:40:14;28.00;99.90